createdAt,value
2023-04-06T00:02:03.457Z,16.75
2023-04-06T00:04:30.406Z,14.43
2023-04-06T00:06:57.158Z,10.60
2023-04-06T00:09:23.895Z,8.57
2023-04-06T00:11:50.606Z,6.78
2023-04-06T00:14:17.379Z,6.80
2023-04-06T00:16:45.534Z,6.10
2023-04-06T00:19:12.364Z,5.30
2023-04-06T00:21:39.207Z,5.70
2023-04-06T00:24:06.221Z,5.65
2023-04-06T00:26:32.961Z,5.22
2023-04-06T00:28:59.672Z,4.93
2023-04-06T00:31:26.425Z,5.40
2023-04-06T00:33:54.495Z,4.70
2023-04-06T00:36:21.268Z,4.47
2023-04-06T00:38:48.041Z,4.15
2023-04-06T00:41:15.005Z,4.28
2023-04-06T00:43:41.782Z,4.40
2023-04-06T00:46:09.133Z,3.45
2023-04-06T00:48:35.993Z,3.83
2023-04-06T00:51:04.461Z,3.80
2023-04-06T00:53:31.213Z,3.97
2023-04-06T00:55:57.921Z,4.53
2023-04-06T00:58:25.156Z,5.65
2023-04-06T01:00:51.933Z,6.68
2023-04-06T01:03:18.653Z,7.63
2023-04-06T01:05:45.529Z,6.22
2023-04-06T01:08:13.760Z,5.90
2023-04-06T01:10:40.598Z,7.20
2023-04-06T01:13:07.313Z,7.00
2023-04-06T01:15:36.131Z,7.55
2023-04-06T01:18:02.974Z,8.10
2023-04-06T01:20:29.865Z,8.23
2023-04-06T01:22:57.953Z,7.72
2023-04-06T01:25:24.702Z,7.53
2023-04-06T01:27:51.431Z,7.35
2023-04-06T01:30:18.202Z,6.28
2023-04-06T01:32:45.337Z,6.07
2023-04-06T01:35:12.222Z,6.72
2023-04-06T01:37:38.978Z,7.57
2023-04-06T01:40:08.807Z,6.20
2023-04-06T01:42:35.501Z,7.07
2023-04-06T01:45:02.250Z,7.38
2023-04-06T01:47:28.996Z,6.57
2023-04-06T01:49:55.873Z,7.45
2023-04-06T01:52:22.668Z,6.70
2023-04-06T01:54:49.454Z,6.32
2023-04-06T01:57:17.680Z,6.85
2023-04-06T01:59:44.404Z,7.82
2023-04-06T02:02:11.301Z,9.15
2023-04-06T02:04:38.011Z,9.98
2023-04-06T02:07:05.034Z,9.93
2023-04-06T02:09:31.833Z,12.48
2023-04-06T02:11:58.615Z,11.93
2023-04-06T02:14:27.144Z,12.18
2023-04-06T02:16:54.019Z,13.30
2023-04-06T02:19:20.800Z,11.40
2023-04-06T02:21:47.496Z,11.70
2023-04-06T02:24:14.224Z,10.88
2023-04-06T02:26:40.934Z,10.63
2023-04-06T02:29:07.862Z,11.77
2023-04-06T02:31:35.999Z,10.85
2023-04-06T02:34:02.814Z,10.20
2023-04-06T02:36:29.628Z,9.70
2023-04-06T02:38:56.334Z,9.63
2023-04-06T02:41:23.073Z,8.90
2023-04-06T02:43:49.781Z,10.82
2023-04-06T02:46:16.521Z,10.73
2023-04-06T02:48:44.617Z,10.63
2023-04-06T02:51:11.329Z,10.15
2023-04-06T02:53:38.030Z,10.20
2023-04-06T02:56:05.247Z,11.20
2023-04-06T02:58:31.947Z,9.90
2023-04-06T03:00:58.707Z,10.00
2023-04-06T03:03:25.598Z,9.32
2023-04-06T03:05:53.712Z,8.40
2023-04-06T03:08:20.423Z,8.90
2023-04-06T03:10:47.294Z,8.10
2023-04-06T03:13:14.009Z,7.88
2023-04-06T03:15:40.753Z,8.48
2023-04-06T03:18:07.588Z,8.60
2023-04-06T03:20:34.354Z,8.98
2023-04-06T03:23:02.462Z,8.27
2023-04-06T03:25:29.164Z,7.53
2023-04-06T03:27:55.895Z,7.82
2023-04-06T03:30:22.643Z,8.10
2023-04-06T03:32:49.391Z,6.78
2023-04-06T03:35:16.322Z,6.63
2023-04-06T03:37:43.197Z,7.47
2023-04-06T03:40:11.983Z,8.18
2023-04-06T03:42:38.708Z,7.82
2023-04-06T03:45:06.174Z,7.80
2023-04-06T03:47:32.881Z,7.13
2023-04-06T03:49:59.631Z,7.38
2023-04-06T03:52:26.405Z,9.05
2023-04-06T03:54:53.129Z,8.77
2023-04-06T03:57:21.169Z,7.80
2023-04-06T03:59:47.883Z,6.85
2023-04-06T04:02:14.620Z,6.82
2023-04-06T04:04:41.425Z,6.78
2023-04-06T04:07:08.237Z,7.43
2023-04-06T04:09:34.952Z,8.38
2023-04-06T04:12:01.778Z,8.65
2023-04-06T04:14:29.920Z,7.65
2023-04-06T04:16:56.719Z,6.85
2023-04-06T04:19:23.646Z,7.72
2023-04-06T04:21:50.379Z,7.20
2023-04-06T04:24:17.130Z,7.60
2023-04-06T04:26:43.814Z,7.13
2023-04-06T04:29:10.863Z,6.97
2023-04-06T04:31:39.057Z,7.25
2023-04-06T04:34:05.801Z,7.22
2023-04-06T04:36:32.545Z,5.82
2023-04-06T04:38:59.362Z,6.25
2023-04-06T04:41:26.084Z,6.03
2023-04-06T04:43:52.791Z,6.65
2023-04-06T04:46:19.580Z,7.38
2023-04-06T04:48:47.685Z,6.90
2023-04-06T04:51:14.388Z,6.53
2023-04-06T04:53:41.109Z,6.22
2023-04-06T04:56:07.836Z,5.75
2023-04-06T04:58:34.591Z,5.75
2023-04-06T05:01:01.374Z,5.82
2023-04-06T05:03:28.635Z,5.57
2023-04-06T05:05:56.771Z,5.95
2023-04-06T05:08:23.512Z,5.30
2023-04-06T05:10:50.469Z,5.28
2023-04-06T05:13:17.257Z,5.13
2023-04-06T05:15:44.061Z,5.10
2023-04-06T05:18:11.204Z,5.38
2023-04-06T05:20:39.697Z,5.35
2023-04-06T05:23:07.738Z,5.63
2023-04-06T05:25:34.475Z,8.05
2023-04-06T05:28:01.291Z,6.10
2023-04-06T05:30:28.047Z,5.63
2023-04-06T05:32:55.249Z,6.13
2023-04-06T05:35:22.065Z,5.97
2023-04-06T05:37:48.818Z,5.80
2023-04-06T05:40:16.976Z,5.55
2023-04-06T05:42:43.976Z,5.82
2023-04-06T05:45:12.256Z,5.45
2023-04-06T05:47:39.011Z,5.97
2023-04-06T05:50:06.861Z,6.55
2023-04-06T05:52:33.997Z,5.63
2023-04-06T05:55:00.699Z,6.10
2023-04-06T05:57:28.855Z,5.68
2023-04-06T05:59:55.560Z,5.60
2023-04-06T06:02:22.408Z,6.57
2023-04-06T06:04:49.466Z,7.47
2023-04-06T06:07:16.230Z,6.13
2023-04-06T06:09:42.975Z,6.47
2023-04-06T06:12:10.531Z,6.03
2023-04-06T06:14:40.056Z,5.78
2023-04-06T06:17:06.790Z,6.13
2023-04-06T06:19:33.553Z,6.10
2023-04-06T06:22:00.274Z,6.43
2023-04-06T06:24:27.243Z,5.93
2023-04-06T06:26:54.539Z,6.90
2023-04-06T06:29:21.437Z,5.88
2023-04-06T06:31:49.524Z,6.68
2023-04-06T06:34:16.279Z,6.32
2023-04-06T06:36:43.401Z,6.57
2023-04-06T06:39:11.335Z,5.97
2023-04-06T06:41:38.195Z,6.38
2023-04-06T06:44:04.952Z,7.13
2023-04-06T06:46:31.657Z,5.82
2023-04-06T06:49:00.156Z,6.25
2023-04-06T06:51:26.895Z,6.20
2023-04-06T06:53:53.589Z,6.80
2023-04-06T06:56:20.350Z,7.00
2023-04-06T06:58:47.056Z,6.78
2023-04-06T07:01:13.896Z,6.70
2023-04-06T07:03:40.640Z,6.43
2023-04-06T07:06:08.832Z,7.13
2023-04-06T07:08:35.560Z,5.35
2023-04-06T07:11:02.300Z,5.68
2023-04-06T07:13:29.011Z,6.00
2023-04-06T07:15:55.744Z,6.10
2023-04-06T07:18:23.021Z,5.53
2023-04-06T07:20:49.825Z,6.28
2023-04-06T07:23:17.945Z,5.88
2023-04-06T07:25:44.669Z,5.30
2023-04-06T07:28:11.443Z,5.95
2023-04-06T07:30:38.282Z,5.15
2023-04-06T07:33:05.243Z,5.97
2023-04-06T07:35:32.338Z,5.78
2023-04-06T07:37:59.177Z,5.80
2023-04-06T07:40:27.308Z,5.60
2023-04-06T07:42:55.218Z,5.32
2023-04-06T07:45:22.963Z,5.93
2023-04-06T07:47:49.747Z,5.82
2023-04-06T07:50:16.600Z,5.93
2023-04-06T07:52:43.812Z,6.70
2023-04-06T07:55:10.528Z,5.50
2023-04-06T07:57:38.739Z,6.25
2023-04-06T08:00:06.749Z,5.80
2023-04-06T08:02:33.583Z,5.47
2023-04-06T08:05:00.577Z,5.45
2023-04-06T08:07:27.477Z,5.25
2023-04-06T08:09:54.210Z,5.10
2023-04-06T08:12:20.935Z,5.88
2023-04-06T08:14:49.123Z,5.40
2023-04-06T08:17:15.862Z,5.22
2023-04-06T08:19:43.680Z,5.78
2023-04-06T08:22:10.449Z,6.63
2023-04-06T08:24:37.244Z,5.25
2023-04-06T08:27:04.145Z,5.53
2023-04-06T08:29:30.871Z,5.03
2023-04-06T08:31:58.963Z,5.57
2023-04-06T08:34:25.695Z,4.10
2023-04-06T08:36:52.408Z,5.57
2023-04-06T08:39:19.149Z,5.47
2023-04-06T08:41:46.047Z,5.43
2023-04-06T08:44:13.139Z,5.45
2023-04-06T08:46:39.943Z,5.25
2023-04-06T08:49:08.989Z,5.00
2023-04-06T08:51:38.073Z,5.88
2023-04-06T08:54:04.848Z,5.95
2023-04-06T08:56:32.360Z,5.53
2023-04-06T08:58:59.788Z,4.53
2023-04-06T09:01:28.131Z,6.07
2023-04-06T09:03:58.265Z,5.43
2023-04-06T09:06:27.808Z,5.47
2023-04-06T09:08:54.697Z,6.15
2023-04-06T09:11:21.759Z,4.95
2023-04-06T09:13:49.800Z,5.03
2023-04-06T09:16:17.306Z,4.32
2023-04-06T09:18:44.271Z,5.63
2023-04-06T09:21:11.746Z,5.13
2023-04-06T09:23:40.184Z,4.97
2023-04-06T09:26:09.003Z,5.40
2023-04-06T09:28:49.350Z,6.55
2023-04-06T09:31:17.218Z,5.97
2023-04-06T09:33:46.504Z,5.10
2023-04-06T09:36:13.918Z,5.53
2023-04-06T09:38:53.891Z,5.60
2023-04-06T09:41:25.305Z,6.10
2023-04-06T09:43:52.653Z,4.82
2023-04-06T09:46:22.237Z,6.78
2023-04-06T09:48:50.217Z,5.82
2023-04-06T09:51:19.131Z,5.30
2023-04-06T09:53:53.370Z,5.72
2023-04-06T09:56:24.770Z,5.15
2023-04-06T09:58:56.268Z,5.90
2023-04-06T10:01:26.721Z,5.65
2023-04-06T10:04:02.405Z,6.10
2023-04-06T10:06:33.845Z,5.60
2023-04-06T10:09:04.924Z,5.25
2023-04-06T10:11:31.930Z,6.50
2023-04-06T10:13:59.192Z,5.47
2023-04-06T10:16:26.792Z,7.00
2023-04-06T10:18:57.474Z,7.00
2023-04-06T10:21:27.306Z,6.65
2023-04-06T10:23:59.714Z,6.47
2023-04-06T10:26:27.814Z,5.95
2023-04-06T10:29:02.480Z,7.47
2023-04-06T10:31:29.806Z,6.72
2023-04-06T10:33:57.328Z,7.15
2023-04-06T10:36:25.721Z,6.93
2023-04-06T10:38:56.986Z,6.95
2023-04-06T10:41:23.737Z,6.47
2023-04-06T10:43:58.030Z,5.40
2023-04-06T10:46:29.582Z,6.57
2023-04-06T10:48:57.019Z,6.72
2023-04-06T10:51:26.624Z,6.35
2023-04-06T10:53:54.647Z,5.65
2023-04-06T10:56:24.242Z,5.60
2023-04-06T10:58:52.923Z,6.32
2023-04-06T11:01:23.138Z,6.40
2023-04-06T11:03:51.658Z,5.82
2023-04-06T11:06:22.749Z,6.28
2023-04-06T11:08:49.929Z,5.20
2023-04-06T11:11:18.054Z,5.68
2023-04-06T11:13:46.298Z,5.95
2023-04-06T11:16:17.464Z,5.95
2023-04-06T11:18:53.396Z,6.13
2023-04-06T11:21:20.870Z,5.82
2023-04-06T11:23:47.604Z,6.20
2023-04-06T11:26:14.599Z,6.25
2023-04-06T11:28:42.184Z,6.68
2023-04-06T11:31:09.754Z,6.15
2023-04-06T11:33:37.090Z,6.28
2023-04-06T11:36:06.145Z,6.22
2023-04-06T11:38:33.175Z,6.60
2023-04-06T11:40:59.964Z,6.55
2023-04-06T11:43:30.740Z,6.20
2023-04-06T11:46:01.581Z,5.88
2023-04-06T11:48:28.545Z,6.13
2023-04-06T11:50:56.904Z,5.80
2023-04-06T11:53:25.162Z,6.55
2023-04-06T11:55:51.927Z,6.93
2023-04-06T11:58:18.733Z,6.22
2023-04-06T12:00:45.836Z,6.63
2023-04-06T12:03:14.035Z,5.72
2023-04-06T12:05:40.914Z,5.63
2023-04-06T12:08:07.755Z,6.10
2023-04-06T12:10:35.824Z,5.65
2023-04-06T12:13:02.555Z,6.20
2023-04-06T12:15:29.244Z,5.53
2023-04-06T12:17:56.039Z,5.82
2023-04-06T12:20:26.913Z,5.07
2023-04-06T12:22:54.320Z,5.78
2023-04-06T12:25:21.388Z,5.30
2023-04-06T12:27:49.441Z,5.38
2023-04-06T12:30:16.804Z,4.78
2023-04-06T12:32:43.566Z,5.60
2023-04-06T12:35:10.465Z,5.57
2023-04-06T12:37:37.211Z,6.32
2023-04-06T12:40:04.764Z,6.70
2023-04-06T12:42:31.472Z,6.22
2023-04-06T12:44:59.567Z,5.20
2023-04-06T12:47:26.976Z,5.38
2023-04-06T12:49:53.771Z,6.63
2023-04-06T12:52:20.593Z,5.70
2023-04-06T12:54:49.837Z,5.70
2023-04-06T12:57:17.564Z,5.88
2023-04-06T12:59:44.544Z,4.97
2023-04-06T13:02:12.800Z,5.32
2023-04-06T13:04:39.745Z,5.68
2023-04-06T13:07:07.598Z,5.90
2023-04-06T13:09:34.346Z,5.78
2023-04-06T13:12:01.083Z,5.75
2023-04-06T13:14:27.956Z,6.25
2023-04-06T13:16:54.876Z,5.20
2023-04-06T13:19:23.158Z,5.60
2023-04-06T13:21:49.892Z,5.85
2023-04-06T13:24:17.801Z,5.47
2023-04-06T13:26:44.866Z,5.35
2023-04-06T13:29:11.610Z,6.43
2023-04-06T13:31:38.508Z,6.25
2023-04-06T13:34:05.746Z,5.55
2023-04-06T13:36:33.866Z,6.13
2023-04-06T13:39:00.688Z,6.43
2023-04-06T13:41:27.432Z,6.00
2023-04-06T13:43:54.174Z,6.57
2023-04-06T13:46:21.335Z,6.35
2023-04-06T13:48:48.218Z,5.93
2023-04-06T13:51:15.567Z,5.85
2023-04-06T13:53:43.740Z,5.60
2023-04-06T13:56:10.660Z,6.38
2023-04-06T13:58:37.647Z,5.43
2023-04-06T14:01:05.709Z,5.70
2023-04-06T14:03:32.780Z,6.10
2023-04-06T14:06:05.246Z,6.07
2023-04-06T14:08:43.865Z,6.40
2023-04-06T14:11:12.545Z,6.28
2023-04-06T14:13:39.265Z,6.03
2023-04-06T14:16:06.590Z,6.03
2023-04-06T14:18:33.324Z,6.25
2023-04-06T14:21:00.388Z,5.97
2023-04-06T14:23:27.811Z,6.43
2023-04-06T14:26:03.811Z,6.20
2023-04-06T14:28:30.772Z,4.93
2023-04-06T14:30:57.699Z,6.00
2023-04-06T14:33:24.552Z,5.18
2023-04-06T14:35:51.237Z,5.93
2023-04-06T14:38:18.156Z,6.95
2023-04-06T14:40:44.895Z,6.55
2023-04-06T14:43:12.972Z,5.85
2023-04-06T14:45:39.782Z,6.88
2023-04-06T14:48:06.831Z,5.28
2023-04-06T14:50:34.016Z,5.63
2023-04-06T14:53:00.729Z,5.38
2023-04-06T14:55:27.448Z,6.05
2023-04-06T14:57:54.159Z,5.20
2023-04-06T15:00:22.604Z,5.25
2023-04-06T15:02:49.401Z,5.63
2023-04-06T15:05:16.247Z,5.78
2023-04-06T15:07:43.099Z,5.15
2023-04-06T15:10:11.642Z,5.40
2023-04-06T15:12:39.412Z,5.85
2023-04-06T15:15:07.135Z,3.72
2023-04-06T15:17:35.267Z,4.95
2023-04-06T15:20:02.085Z,5.13
2023-04-06T15:22:29.301Z,5.40
2023-04-06T15:24:56.042Z,5.25
2023-04-06T15:27:22.815Z,4.82
2023-04-06T15:29:49.558Z,5.07
2023-04-06T15:32:16.364Z,4.63
2023-04-06T15:34:44.443Z,5.10
2023-04-06T15:37:11.195Z,4.85
2023-04-06T15:39:37.937Z,4.68
2023-04-06T15:42:04.815Z,5.20
2023-04-06T15:44:31.612Z,5.32
2023-04-06T15:46:58.490Z,5.00
2023-04-06T15:49:25.510Z,6.03
2023-04-06T15:51:53.638Z,4.88
2023-04-06T15:54:20.373Z,4.78
2023-04-06T15:56:48.012Z,4.93
2023-04-06T15:59:15.452Z,4.60
2023-04-06T16:01:43.002Z,5.95
2023-04-06T16:04:09.870Z,4.95
2023-04-06T16:06:36.701Z,4.75
2023-04-06T16:09:04.826Z,4.95
2023-04-06T16:11:31.540Z,5.03
2023-04-06T16:13:58.528Z,5.57
2023-04-06T16:16:25.544Z,5.30
2023-04-06T16:18:52.305Z,5.80
2023-04-06T16:21:19.324Z,5.57
2023-04-06T16:23:47.424Z,5.07
2023-04-06T16:26:16.860Z,5.85
2023-04-06T16:28:43.765Z,5.22
2023-04-06T16:31:18.173Z,5.38
2023-04-06T16:33:45.128Z,5.03
2023-04-06T16:36:12.206Z,5.00
2023-04-06T16:38:38.946Z,5.47
2023-04-06T16:41:05.833Z,5.25
2023-04-06T16:43:34.153Z,5.15
2023-04-06T16:46:00.892Z,5.78
2023-04-06T16:48:27.667Z,5.50
2023-04-06T16:50:55.424Z,4.93
2023-04-06T16:53:22.298Z,5.68
2023-04-06T16:55:49.013Z,5.35
2023-04-06T16:58:15.765Z,5.50
2023-04-06T17:00:43.985Z,5.47
2023-04-06T17:03:10.965Z,5.50
2023-04-06T17:05:37.762Z,5.80
2023-04-06T17:08:04.783Z,5.20
2023-04-06T17:10:33.803Z,5.53
2023-04-06T17:13:03.938Z,5.25
2023-04-06T17:15:30.643Z,5.32
2023-04-06T17:17:58.762Z,5.28
2023-04-06T17:20:25.528Z,5.88
2023-04-06T17:22:52.392Z,6.82
2023-04-06T17:25:19.342Z,6.93
2023-04-06T17:27:46.204Z,6.50
2023-04-06T17:30:16.185Z,5.20
2023-04-06T17:32:43.893Z,5.30
2023-04-06T17:35:12.133Z,6.00
2023-04-06T17:37:39.185Z,4.68
2023-04-06T17:40:07.249Z,5.13
2023-04-06T17:42:34.006Z,4.80
2023-04-06T17:45:00.777Z,5.10
2023-04-06T17:47:27.582Z,4.53
2023-04-06T17:49:54.339Z,4.90
2023-04-06T17:52:22.466Z,4.57
2023-04-06T17:54:49.256Z,4.53
2023-04-06T17:57:16.038Z,5.38
2023-04-06T17:59:44.078Z,5.00
2023-04-06T18:02:12.936Z,5.68
2023-04-06T18:04:39.810Z,5.22
2023-04-06T18:07:06.588Z,5.97
2023-04-06T18:09:34.662Z,5.13
2023-04-06T18:12:01.692Z,5.28
2023-04-06T18:14:28.655Z,4.70
2023-04-06T18:16:55.408Z,5.07
2023-04-06T18:19:22.166Z,4.80
2023-04-06T18:21:48.921Z,4.78
2023-04-06T18:24:27.134Z,5.38
2023-04-06T18:27:00.645Z,5.27
2023-04-06T18:29:27.694Z,5.32
2023-04-06T18:31:55.119Z,5.05
2023-04-06T18:34:23.004Z,5.55
2023-04-06T18:36:49.921Z,5.70
2023-04-06T18:39:16.632Z,5.93
2023-04-06T18:41:43.334Z,5.43
2023-04-06T18:44:11.931Z,5.03
2023-04-06T18:46:39.314Z,4.80
2023-04-06T18:49:06.141Z,4.82
2023-04-06T18:51:33.220Z,5.15
2023-04-06T18:54:00.464Z,5.40
2023-04-06T18:56:27.184Z,5.10
2023-04-06T18:58:54.191Z,4.80
2023-04-06T19:01:23.621Z,5.22
2023-04-06T19:03:50.880Z,5.18
2023-04-06T19:06:17.802Z,5.35
2023-04-06T19:08:44.808Z,4.95
2023-04-06T19:11:11.524Z,5.50
2023-04-06T19:13:38.331Z,5.75
2023-04-06T19:16:08.677Z,4.82
2023-04-06T19:18:37.297Z,5.68
2023-04-06T19:21:04.180Z,5.10
2023-04-06T19:23:31.075Z,5.07
2023-04-06T19:25:57.946Z,4.50
2023-04-06T19:28:24.949Z,4.97
2023-04-06T19:30:52.634Z,5.28
2023-04-06T19:33:19.901Z,5.07
2023-04-06T19:35:48.597Z,5.93
2023-04-06T19:38:15.816Z,5.78
2023-04-06T19:40:43.024Z,5.30
2023-04-06T19:43:10.236Z,5.45
2023-04-06T19:45:39.344Z,4.97
2023-04-06T19:48:06.924Z,5.28
2023-04-06T19:50:33.998Z,5.45
2023-04-06T19:53:02.636Z,6.25
2023-04-06T19:55:30.223Z,5.07
2023-04-06T19:57:57.449Z,5.22
2023-04-06T20:00:25.304Z,4.57
2023-04-06T20:02:52.568Z,5.13
2023-04-06T20:05:19.946Z,4.95
2023-04-06T20:07:48.189Z,4.65
2023-04-06T20:10:17.074Z,4.82
2023-04-06T20:12:45.070Z,5.25
2023-04-06T20:15:12.698Z,5.07
2023-04-06T20:17:39.880Z,5.35
2023-04-06T20:20:07.871Z,5.40
2023-04-06T20:22:34.764Z,5.75
2023-04-06T20:25:01.752Z,4.90
2023-04-06T20:27:29.945Z,6.13
2023-04-06T20:29:57.086Z,6.10
2023-04-06T20:32:23.965Z,4.55
2023-04-06T20:34:50.762Z,5.60
2023-04-06T20:37:17.469Z,5.10
2023-04-06T20:39:44.206Z,4.72
2023-04-06T20:42:10.939Z,4.70
2023-04-06T20:44:39.008Z,4.80
2023-04-06T20:47:05.783Z,4.85
2023-04-06T20:49:32.511Z,5.07
2023-04-06T20:51:59.368Z,4.80
2023-04-06T20:54:26.064Z,4.15
2023-04-06T20:56:52.852Z,5.30
2023-04-06T20:59:19.559Z,5.18
2023-04-06T21:01:47.750Z,5.22
2023-04-06T21:04:14.807Z,5.45
2023-04-06T21:06:41.917Z,4.70
2023-04-06T21:09:08.618Z,5.43
2023-04-06T21:11:35.650Z,4.35
2023-04-06T21:14:02.355Z,6.28
2023-04-06T21:16:29.090Z,5.55
2023-04-06T21:18:57.154Z,6.57
2023-04-06T21:21:24.000Z,5.72
2023-04-06T21:23:52.025Z,5.85
2023-04-06T21:26:19.302Z,5.68
2023-04-06T21:28:46.039Z,5.35
2023-04-06T21:31:12.799Z,5.75
2023-04-06T21:33:39.518Z,6.03
2023-04-06T21:36:08.478Z,5.82
2023-04-06T21:38:35.232Z,5.97
2023-04-06T21:41:02.006Z,5.25
2023-04-06T21:43:28.866Z,4.68
2023-04-06T21:45:55.557Z,5.47
2023-04-06T21:48:22.309Z,6.38
2023-04-06T21:50:49.006Z,6.20
2023-04-06T21:53:17.095Z,4.97
2023-04-06T21:55:44.446Z,5.53
2023-04-06T21:58:12.000Z,5.93
2023-04-06T22:00:38.882Z,5.65
2023-04-06T22:03:05.758Z,5.70
2023-04-06T22:05:32.844Z,5.60
2023-04-06T22:07:59.742Z,5.65
2023-04-06T22:10:27.871Z,5.55
2023-04-06T22:12:54.709Z,6.47
2023-04-06T22:15:21.782Z,6.18
2023-04-06T22:17:48.537Z,6.00
2023-04-06T22:20:15.412Z,6.22
2023-04-06T22:22:42.125Z,5.30
2023-04-06T22:25:09.565Z,5.75
2023-04-06T22:27:37.619Z,6.05
2023-04-06T22:30:05.278Z,5.72
2023-04-06T22:32:32.084Z,6.10
2023-04-06T22:34:58.788Z,5.43
2023-04-06T22:37:25.584Z,6.78
2023-04-06T22:39:52.497Z,5.88
2023-04-06T22:42:19.301Z,6.03
2023-04-06T22:44:47.393Z,6.13
2023-04-06T22:47:14.409Z,5.38
2023-04-06T22:49:41.193Z,5.47
2023-04-06T22:52:07.964Z,6.18
2023-04-06T22:54:34.729Z,6.40
2023-04-06T22:57:01.625Z,5.43
2023-04-06T22:59:28.394Z,6.63
2023-04-06T23:01:56.558Z,6.95
2023-04-06T23:04:23.372Z,7.00
2023-04-06T23:06:50.292Z,6.97
2023-04-06T23:09:16.985Z,6.50
2023-04-06T23:11:43.754Z,6.38
2023-04-06T23:14:10.534Z,6.30
2023-04-06T23:16:37.256Z,6.03
2023-04-06T23:19:05.349Z,5.60
2023-04-06T23:21:33.124Z,6.03
2023-04-06T23:24:00.601Z,6.80
2023-04-06T23:26:27.594Z,6.95
2023-04-06T23:28:54.340Z,6.97
2023-04-06T23:31:21.084Z,8.05
2023-04-06T23:33:47.845Z,5.40
2023-04-06T23:36:15.906Z,7.28
2023-04-06T23:38:42.665Z,7.22
2023-04-06T23:41:13.044Z,7.63
2023-04-06T23:43:39.752Z,7.10
2023-04-06T23:46:06.551Z,7.30
2023-04-06T23:48:33.272Z,6.82
2023-04-06T23:50:59.970Z,5.60
2023-04-06T23:53:28.031Z,6.18
2023-04-06T23:55:54.824Z,6.20
2023-04-06T23:58:21.624Z,7.35
